Check out our new BloomSky Weather System.

Active alerts

Houston, TX
  Details for Houston, TX Dense Fog Advisory


Thunder radar  blitzortung!


Rain radar more information rain snow radar


Visit our other weather sites:

Template documentation
and downloads

And another site



Weather Underground History page Text

Daily Summary for September 23, 2017 Units:  English    Metric   Both
« Previous Day
Next Day »
Daily Weekly Monthly Yearly Custom
  High: Low: Average:
Temperature: 91.6 °F 72.3 °F 80.8 °F
Dew Point: 79.3 °F 69.1 °F 73.8 °F
Humidity: 100 % 49 % 81 %
Wind Speed: 10.0 mph 0.0 mph 1.5 mph
Wind Gust: 13.0 mph - -
Wind:- - ESE
Pressure: 29.93 in 29.84 in -
Precipitation: 0.00 in    
Historical Graphs
 
 
Tabular Data for September 23, 2017
Time Temperature Dew Point Pressure Wind Wind Speed Wind Gust Humidity Rainfall Rate (Hourly)
00:02 76.6 °F 74.1 °F 29.90 in Calm   1.0 mph 92 % 0.00 in
00:07 76.8 °F 74.3 °F 29.90 in Calm   1.0 mph 92 % 0.00 in
00:12 76.8 °F 74.3 °F 29.90 in Calm   1.0 mph 92 % 0.00 in
00:17 76.8 °F 74.3 °F 29.90 in Calm   1.0 mph 92 % 0.00 in
00:22 76.8 °F 74.3 °F 29.90 in Calm   1.0 mph 92 % 0.00 in
00:27 76.6 °F 74.1 °F 29.90 in Calm     92 % 0.00 in
00:32 76.6 °F 74.1 °F 29.90 in Calm     92 % 0.00 in
00:37 76.5 °F 74.3 °F 29.90 in Calm   1.0 mph 93 % 0.00 in
00:42 76.5 °F 74.3 °F 29.90 in Calm   1.0 mph 93 % 0.00 in
00:47 76.5 °F 74.3 °F 29.90 in Calm   1.0 mph 93 % 0.00 in
00:52 76.3 °F 74.1 °F 29.90 in Calm   1.0 mph 93 % 0.00 in
00:57 76.1 °F 73.9 °F 29.90 in Calm     93 % 0.00 in
01:02 75.9 °F 74.1 °F 29.90 in Calm     94 % 0.00 in
01:07 75.7 °F 73.9 °F 29.90 in Calm     94 % 0.00 in
01:12 75.6 °F 73.8 °F 29.90 in Calm     94 % 0.00 in
01:17 75.4 °F 73.6 °F 29.90 in Calm     94 % 0.00 in
01:22 75.4 °F 73.6 °F 29.90 in Calm     94 % 0.00 in
01:27 75.0 °F 73.4 °F 29.90 in Calm     95 % 0.00 in
01:32 74.8 °F 73.2 °F 29.90 in Calm     95 % 0.00 in
01:37 74.8 °F 73.2 °F 29.90 in Calm     95 % 0.00 in
01:42 74.8 °F 73.2 °F 29.91 in Calm     95 % 0.00 in
01:47 74.7 °F 73.4 °F 29.91 in Calm     96 % 0.00 in
01:52 74.7 °F 73.4 °F 29.90 in Calm     96 % 0.00 in
01:57 74.7 °F 73.2 °F 29.91 in Calm     95 % 0.00 in
02:02 74.7 °F 73.4 °F 29.91 in Calm     96 % 0.00 in
02:07 74.5 °F 73.2 °F 29.91 in Calm     96 % 0.00 in
02:12 74.3 °F 73.0 °F 29.90 in Calm     96 % 0.00 in
02:17 74.3 °F 73.0 °F 29.90 in Calm     96 % 0.00 in
02:23 74.3 °F 73.0 °F 29.90 in Calm     96 % 0.00 in
02:28 74.1 °F 72.9 °F 29.90 in Calm     96 % 0.00 in
02:33 74.1 °F 72.9 °F 29.90 in Calm     96 % 0.00 in
02:38 73.9 °F 72.7 °F 29.90 in Calm     96 % 0.00 in
02:43 73.9 °F 73.0 °F 29.90 in Calm     97 % 0.00 in
02:48 73.9 °F 73.0 °F 29.90 in Calm     97 % 0.00 in
02:53 73.9 °F 73.0 °F 29.90 in Calm     97 % 0.00 in
02:58 73.8 °F 72.9 °F 29.90 in Calm     97 % 0.00 in
03:03 73.8 °F 72.9 °F 29.90 in Calm     97 % 0.00 in
03:08 73.6 °F 72.7 °F 29.90 in Calm     97 % 0.00 in
03:13 73.6 °F 72.7 °F 29.90 in Calm     97 % 0.00 in
03:18 73.6 °F 72.7 °F 29.89 in Calm     97 % 0.00 in
03:23 73.6 °F 72.7 °F 29.89 in Calm     97 % 0.00 in
03:28 73.6 °F 72.7 °F 29.89 in Calm     97 % 0.00 in
03:33 73.4 °F 72.5 °F 29.89 in Calm     97 % 0.00 in
03:38 73.6 °F 73.0 °F 29.89 in Calm     98 % 0.00 in
03:43 73.6 °F 73.0 °F 29.89 in Calm     98 % 0.00 in
03:48 73.6 °F 73.0 °F 29.89 in Calm     98 % 0.00 in
03:54 73.2 °F 72.7 °F 29.89 in Calm     98 % 0.00 in
03:59 73.2 °F 72.7 °F 29.89 in Calm     98 % 0.00 in
04:04 73.2 °F 72.7 °F 29.89 in Calm     98 % 0.00 in
04:09 73.0 °F 72.5 °F 29.89 in Calm     98 % 0.00 in
04:14 73.2 °F 72.7 °F 29.89 in Calm     98 % 0.00 in
04:19 73.0 °F 72.5 °F 29.89 in Calm     98 % 0.00 in
04:24 73.0 °F 72.5 °F 29.89 in Calm     98 % 0.00 in
04:29 73.0 °F 72.5 °F 29.89 in Calm     98 % 0.00 in
04:34 73.0 °F 72.5 °F 29.89 in Calm     98 % 0.00 in
04:39 72.9 °F 72.3 °F 29.89 in Calm     98 % 0.00 in
04:40 72.9 °F 72.3 °F 29.89 in Calm     98 % 0.00 in
04:45 72.9 °F 72.3 °F 29.89 in Calm     98 % 0.00 in
04:50 72.9 °F 72.3 °F 29.89 in Calm     98 % 0.00 in
04:55 72.9 °F 72.3 °F 29.89 in Calm     98 % 0.00 in
05:00 72.9 °F 72.3 °F 29.89 in Calm     98 % 0.00 in
05:05 72.9 °F 72.3 °F 29.89 in Calm     98 % 0.00 in
05:10 72.7 °F 72.1 °F 29.89 in Calm     98 % 0.00 in
05:15 72.7 °F 72.3 °F 29.89 in Calm     99 % 0.00 in
05:20 72.7 °F 72.3 °F 29.89 in Calm     99 % 0.00 in
05:25 72.7 °F 72.3 °F 29.89 in Calm     99 % 0.00 in
05:30 72.7 °F 72.3 °F 29.90 in Calm     99 % 0.00 in
05:35 72.7 °F 72.3 °F 29.90 in Calm     99 % 0.00 in
05:41 72.7 °F 72.3 °F 29.90 in Calm     99 % 0.00 in
05:46 72.7 °F 72.3 °F 29.90 in Calm     99 % 0.00 in
05:51 72.7 °F 72.3 °F 29.90 in Calm     99 % 0.00 in
05:56 72.7 °F 72.3 °F 29.90 in Calm   1.0 mph 99 % 0.00 in
06:01 72.7 °F 72.3 °F 29.90 in Calm   1.0 mph 99 % 0.00 in
06:06 72.7 °F 72.3 °F 29.90 in Calm   1.0 mph 99 % 0.00 in
06:11 72.7 °F 72.3 °F 29.90 in Calm   1.0 mph 99 % 0.00 in
06:16 72.9 °F 72.5 °F 29.90 in Calm     99 % 0.00 in
06:21 72.9 °F 72.5 °F 29.90 in Calm     99 % 0.00 in
06:26 72.9 °F 72.5 °F 29.90 in Calm     99 % 0.00 in
06:31 72.9 °F 72.5 °F 29.90 in Calm     99 % 0.00 in
06:36 72.7 °F 72.3 °F 29.90 in Calm     99 % 0.00 in
06:41 72.7 °F 72.3 °F 29.91 in Calm     99 % 0.00 in
06:46 72.7 °F 72.3 °F 29.91 in Calm     99 % 0.00 in
06:51 72.5 °F 72.1 °F 29.91 in Calm     99 % 0.00 in
06:56 72.3 °F 72.0 °F 29.91 in Calm     99 % 0.00 in
07:01 72.3 °F 72.0 °F 29.91 in Calm     99 % 0.00 in
07:06 72.3 °F 72.0 °F 29.91 in Calm     99 % 0.00 in
07:11 72.3 °F 72.0 °F 29.91 in Calm     99 % 0.00 in
07:16 72.5 °F 72.1 °F 29.91 in Calm     99 % 0.00 in
07:21 72.7 °F 72.3 °F 29.91 in Calm     99 % 0.00 in
07:26 72.7 °F 72.3 °F 29.91 in Calm     99 % 0.00 in
07:31 72.9 °F 72.9 °F 29.91 in Calm   1.0 mph 100 % 0.00 in
07:36 73.0 °F 73.0 °F 29.91 in Calm   1.0 mph 100 % 0.00 in
07:41 73.0 °F 73.0 °F 29.91 in Calm   1.0 mph 100 % 0.00 in
07:46 73.2 °F 73.2 °F 29.91 in Calm   1.0 mph 100 % 0.00 in
07:51 73.4 °F 73.4 °F 29.91 in Calm   1.0 mph 100 % 0.00 in
07:56 73.6 °F 73.6 °F 29.91 in Calm   1.0 mph 100 % 0.00 in
08:01 73.8 °F 73.8 °F 29.91 in Calm   1.0 mph 100 % 0.00 in
08:06 73.9 °F 73.9 °F 29.91 in NNW 1.0 mph 1.0 mph 100 % 0.00 in
08:11 73.9 °F 73.9 °F 29.91 in Calm   1.0 mph 100 % 0.00 in
08:16 74.1 °F 74.1 °F 29.91 in Calm   1.0 mph 100 % 0.00 in
08:21 74.5 °F 74.5 °F 29.91 in NW 1.0 mph 2.0 mph 100 % 0.00 in
08:26 74.5 °F 74.5 °F 29.91 in NNW 1.0 mph 2.0 mph 100 % 0.00 in
08:31 74.7 °F 74.7 °F 29.91 in Calm   2.0 mph 100 % 0.00 in
08:36 74.8 °F 74.8 °F 29.91 in North 1.0 mph 2.0 mph 100 % 0.00 in
08:41 75.0 °F 75.0 °F 29.91 in Calm   2.0 mph 100 % 0.00 in
08:46 75.4 °F 75.4 °F 29.91 in Calm   1.0 mph 100 % 0.00 in
08:51 75.4 °F 75.4 °F 29.92 in ENE 1.0 mph 2.0 mph 100 % 0.00 in
08:56 75.7 °F 75.7 °F 29.91 in Calm   3.0 mph 100 % 0.00 in
09:01 76.3 °F 76.3 °F 29.91 in North 1.0 mph 3.0 mph 100 % 0.00 in
09:06 76.6 °F 76.6 °F 29.92 in ESE 1.0 mph 3.0 mph 100 % 0.00 in
09:11 77.0 °F 77.0 °F 29.92 in ENE 1.0 mph 2.0 mph 100 % 0.00 in
09:16 77.2 °F 76.8 °F 29.92 in Calm   2.0 mph 99 % 0.00 in
09:21 77.5 °F 77.2 °F 29.92 in Calm   2.0 mph 99 % 0.00 in
09:26 78.1 °F 77.7 °F 29.92 in NNE 1.0 mph 2.0 mph 99 % 0.00 in
09:31 78.6 °F 78.1 °F 29.92 in Calm   3.0 mph 98 % 0.00 in
09:36 79.3 °F 78.4 °F 29.92 in NW 1.0 mph 3.0 mph 97 % 0.00 in
09:41 79.9 °F 78.6 °F 29.92 in Calm   3.0 mph 96 % 0.00 in
09:46 81.0 °F 79.0 °F 29.92 in NNW 2.0 mph 3.0 mph 94 % 0.00 in
09:51 81.7 °F 79.2 °F 29.93 in NNW 3.0 mph 3.0 mph 92 % 0.00 in
09:56 82.6 °F 79.3 °F 29.93 in Calm   3.0 mph 90 % 0.00 in
10:01 82.9 °F 79.0 °F 29.93 in SSE 3.0 mph 4.0 mph 88 % 0.00 in
10:11 83.7 °F 77.5 °F 29.93 in East 1.0 mph 5.0 mph 82 % 0.00 in
10:16 83.3 °F 77.9 °F 29.93 in ESE 4.0 mph 6.0 mph 84 % 0.00 in
10:21 83.7 °F 78.6 °F 29.93 in East 1.0 mph 6.0 mph 85 % 0.00 in
10:26 84.0 °F 77.9 °F 29.93 in Calm   6.0 mph 82 % 0.00 in
10:31 84.4 °F 78.6 °F 29.93 in Calm   4.0 mph 83 % 0.00 in
10:36 84.9 °F 78.8 °F 29.93 in SE 1.0 mph 4.0 mph 82 % 0.00 in
10:41 85.3 °F 78.4 °F 29.93 in SSE 2.0 mph 4.0 mph 80 % 0.00 in
10:46 85.5 °F 77.4 °F 29.93 in SE 4.0 mph 7.0 mph 77 % 0.00 in
10:52 85.6 °F 76.8 °F 29.93 in ESE 4.0 mph 7.0 mph 75 % 0.00 in
10:57 85.6 °F 76.8 °F 29.93 in SE 7.0 mph 8.0 mph 75 % 0.00 in
11:02 86.0 °F 77.2 °F 29.93 in East 2.0 mph 10.0 mph 75 % 0.00 in
11:07 86.7 °F 77.0 °F 29.93 in East 7.0 mph 10.0 mph 73 % 0.00 in
11:12 86.5 °F 76.8 °F 29.93 in ESE 3.0 mph 10.0 mph 73 % 0.00 in
11:17 86.0 °F 77.2 °F 29.93 in ESE 3.0 mph 9.0 mph 75 % 0.00 in
11:22 86.2 °F 77.0 °F 29.92 in SSE 3.0 mph 9.0 mph 74 % 0.00 in
11:27 86.7 °F 77.4 °F 29.92 in SE 5.0 mph 9.0 mph 74 % 0.00 in
11:32 87.4 °F 77.4 °F 29.93 in East 4.0 mph 8.0 mph 72 % 0.00 in
11:37 87.6 °F 77.9 °F 29.93 in SSE 6.0 mph 8.0 mph 73 % 0.00 in
11:42 88.0 °F 76.1 °F 29.92 in SE 4.0 mph 9.0 mph 68 % 0.00 in
11:47 88.2 °F 76.6 °F 29.92 in ESE 6.0 mph 9.0 mph 69 % 0.00 in
11:52 88.0 °F 76.5 °F 29.92 in SE 1.0 mph 9.0 mph 69 % 0.00 in
11:57 88.2 °F 76.6 °F 29.92 in SE 2.0 mph 8.0 mph 69 % 0.00 in
12:02 88.5 °F 76.6 °F 29.92 in ENE 1.0 mph 7.0 mph 68 % 0.00 in
12:07 88.3 °F 75.6 °F 29.92 in East 4.0 mph 7.0 mph 66 % 0.00 in
12:12 88.2 °F 74.8 °F 29.92 in ESE 4.0 mph 7.0 mph 65 % 0.00 in
12:17 87.6 °F 75.4 °F 29.91 in ESE 6.0 mph 8.0 mph 67 % 0.00 in
12:22 87.4 °F 75.6 °F 29.92 in East 4.0 mph 9.0 mph 68 % 0.00 in
12:27 87.6 °F 74.8 °F 29.91 in East 1.0 mph 9.0 mph 66 % 0.00 in
12:32 88.0 °F 74.7 °F 29.91 in East 3.0 mph 9.0 mph 65 % 0.00 in
12:37 88.3 °F 74.7 °F 29.91 in SSE 2.0 mph 6.0 mph 64 % 0.00 in
12:42 88.9 °F 74.7 °F 29.91 in SE 7.0 mph 11.0 mph 63 % 0.00 in
12:47 88.9 °F 74.7 °F 29.91 in SE 5.0 mph 11.0 mph 63 % 0.00 in
12:52 88.9 °F 75.2 °F 29.91 in ENE 4.0 mph 11.0 mph 64 % 0.00 in
12:57 88.9 °F 75.6 °F 29.91 in ENE 5.0 mph 12.0 mph 65 % 0.00 in
13:02 89.2 °F 73.0 °F 29.91 in ESE 8.0 mph 12.0 mph 59 % 0.00 in
13:07 89.2 °F 73.6 °F 29.90 in East 3.0 mph 12.0 mph 60 % 0.00 in
13:12 90.0 °F 74.1 °F 29.90 in SSE 5.0 mph 13.0 mph 60 % 0.00 in
13:17 90.0 °F 73.8 °F 29.90 in SW 2.0 mph 13.0 mph 59 % 0.00 in
13:22 90.0 °F 75.2 °F 29.90 in ESE 3.0 mph 13.0 mph 62 % 0.00 in
13:27 90.0 °F 73.2 °F 29.89 in East 6.0 mph 11.0 mph 58 % 0.00 in
13:32 90.1 °F 73.9 °F 29.89 in East 3.0 mph 11.0 mph 59 % 0.00 in
13:37 90.3 °F 73.6 °F 29.89 in East 6.0 mph 13.0 mph 58 % 0.00 in
13:42 90.1 °F 73.9 °F 29.89 in East 5.0 mph 13.0 mph 59 % 0.00 in
13:47 90.3 °F 74.1 °F 29.89 in East 8.0 mph 13.0 mph 59 % 0.00 in
13:52 90.3 °F 74.5 °F 29.89 in ENE 3.0 mph 8.0 mph 60 % 0.00 in
13:57 90.7 °F 74.8 °F 29.89 in WNW 2.0 mph 8.0 mph 60 % 0.00 in
14:02 90.9 °F 75.6 °F 29.89 in SE 3.0 mph 8.0 mph 61 % 0.00 in
14:07 91.2 °F 75.4 °F 29.88 in SE 5.0 mph 8.0 mph 60 % 0.00 in
14:12 91.6 °F 74.1 °F 29.88 in SE 4.0 mph 9.0 mph 57 % 0.00 in
14:17 90.9 °F 74.5 °F 29.88 in ENE 1.0 mph 9.0 mph 59 % 0.00 in
14:22 90.7 °F 73.9 °F 29.88 in ENE 4.0 mph 9.0 mph 58 % 0.00 in
14:27 90.7 °F 75.9 °F 29.87 in SSE 3.0 mph 9.0 mph 62 % 0.00 in
14:32 90.5 °F 72.7 °F 29.87 in ESE 6.0 mph 10.0 mph 56 % 0.00 in
14:37 90.9 °F 73.6 °F 29.87 in NE 4.0 mph 12.0 mph 57 % 0.00 in
14:42 90.9 °F 71.4 °F 29.87 in SE 7.0 mph 12.0 mph 53 % 0.00 in
14:47 90.9 °F 72.5 °F 29.86 in SE 2.0 mph 12.0 mph 55 % 0.00 in
14:52 91.2 °F 72.9 °F 29.86 in SE 3.0 mph 11.0 mph 55 % 0.00 in
14:57 91.2 °F 73.4 °F 29.86 in SSE 3.0 mph 10.0 mph 56 % 0.00 in
15:02 91.0 °F 72.1 °F 29.86 in ESE 3.0 mph 10.0 mph 54 % 0.00 in
15:07 91.0 °F 72.7 °F 29.86 in SSE 2.0 mph 10.0 mph 55 % 0.00 in
15:12 90.9 °F 73.0 °F 29.86 in East 3.0 mph 9.0 mph 56 % 0.00 in
15:17 90.9 °F 73.0 °F 29.86 in ESE 4.0 mph 9.0 mph 56 % 0.00 in
15:22 90.7 °F 73.4 °F 29.86 in ENE 10.0 mph 11.0 mph 57 % 0.00 in
15:27 90.3 °F 73.0 °F 29.85 in East 4.0 mph 11.0 mph 57 % 0.00 in
15:32 91.0 °F 72.1 °F 29.85 in ESE 3.0 mph 11.0 mph 54 % 0.00 in
15:37 90.9 °F 72.5 °F 29.85 in ENE 7.0 mph 10.0 mph 55 % 0.00 in
15:42 90.9 °F 71.4 °F 29.85 in East 4.0 mph 9.0 mph 53 % 0.00 in
15:47 90.1 °F 71.8 °F 29.84 in SE 4.0 mph 10.0 mph 55 % 0.00 in
15:52 90.1 °F 71.2 °F 29.84 in ESE 6.0 mph 10.0 mph 54 % 0.00 in
15:57 90.5 °F 72.7 °F 29.84 in ESE 2.0 mph 10.0 mph 56 % 0.00 in
16:02 90.9 °F 70.9 °F 29.84 in SE 5.0 mph 9.0 mph 52 % 0.00 in
16:07 91.0 °F 70.3 °F 29.84 in SSE 5.0 mph 9.0 mph 51 % 0.00 in
16:12 91.2 °F 71.1 °F 29.84 in ESE 6.0 mph 9.0 mph 52 % 0.00 in
16:17 91.4 °F 70.7 °F 29.84 in SE 5.0 mph 9.0 mph 51 % 0.00 in
16:22 91.0 °F 71.6 °F 29.84 in SSE 2.0 mph 10.0 mph 53 % 0.00 in
16:23 90.9 °F 71.4 °F 29.84 in East 6.0 mph 10.0 mph 53 % 0.00 in
16:28 90.9 °F 71.4 °F 29.84 in ESE 5.0 mph 10.0 mph 53 % 0.00 in
16:33 90.9 °F 70.2 °F 29.84 in SE 4.0 mph 10.0 mph 51 % 0.00 in
16:38 90.9 °F 69.6 °F 29.84 in ESE 4.0 mph 10.0 mph 50 % 0.00 in
16:43 90.9 °F 69.6 °F 29.84 in SSE 4.0 mph 10.0 mph 50 % 0.00 in
16:48 90.9 °F 70.2 °F 29.84 in SE 10.0 mph 10.0 mph 51 % 0.00 in
16:53 90.9 °F 69.1 °F 29.84 in ESE 2.0 mph 10.0 mph 49 % 0.00 in
16:58 90.9 °F 70.2 °F 29.84 in SSE 6.0 mph 10.0 mph 51 % 0.00 in
17:03 90.9 °F 69.1 °F 29.84 in SSE 6.0 mph 10.0 mph 49 % 0.00 in
17:08 90.7 °F 69.4 °F 29.84 in SSE 1.0 mph 9.0 mph 50 % 0.00 in
17:13 90.9 °F 70.2 °F 29.84 in SE 6.0 mph 9.0 mph 51 % 0.00 in
17:18 90.5 °F 70.5 °F 29.84 in East 2.0 mph 9.0 mph 52 % 0.00 in
17:23 90.5 °F 72.1 °F 29.84 in SE 7.0 mph 9.0 mph 55 % 0.00 in
17:28 90.3 °F 72.5 °F 29.84 in ENE 5.0 mph 9.0 mph 56 % 0.00 in
17:33 90.1 °F 71.8 °F 29.84 in ENE 4.0 mph 9.0 mph 55 % 0.00 in
17:38 90.1 °F 73.9 °F 29.85 in East 2.0 mph 10.0 mph 59 % 0.00 in
17:43 89.2 °F 75.0 °F 29.85 in North 4.0 mph 10.0 mph 63 % 0.00 in
17:48 88.3 °F 75.0 °F 29.85 in East 2.0 mph 10.0 mph 65 % 0.00 in
17:53 87.3 °F 74.5 °F 29.85 in NNE 5.0 mph 9.0 mph 66 % 0.00 in
17:58 86.4 °F 74.1 °F 29.85 in ESE 5.0 mph 11.0 mph 67 % 0.00 in
18:03 85.5 °F 74.1 °F 29.86 in ENE 3.0 mph 11.0 mph 69 % 0.00 in
18:08 84.7 °F 74.3 °F 29.85 in Calm   11.0 mph 71 % 0.00 in
18:13 84.6 °F 74.5 °F 29.86 in ESE 1.0 mph 11.0 mph 72 % 0.00 in
18:18 84.4 °F 74.3 °F 29.86 in ENE 3.0 mph 11.0 mph 72 % 0.00 in
18:24 84.0 °F 74.5 °F 29.86 in Calm   9.0 mph 73 % 0.00 in
18:29 84.2 °F 74.1 °F 29.86 in ESE 1.0 mph 9.0 mph 72 % 0.00 in
18:34 84.2 °F 74.1 °F 29.85 in East 3.0 mph 8.0 mph 72 % 0.00 in
18:39 84.2 °F 73.8 °F 29.85 in Calm   8.0 mph 71 % 0.00 in
18:44 84.4 °F 73.6 °F 29.86 in NE 1.0 mph 7.0 mph 70 % 0.00 in
18:49 84.4 °F 73.0 °F 29.86 in ESE 3.0 mph 6.0 mph 69 % 0.00 in
18:54 84.0 °F 73.2 °F 29.85 in ESE 1.0 mph 4.0 mph 70 % 0.00 in
19:04 83.3 °F 72.5 °F 29.85 in Calm   5.0 mph 70 % 0.00 in
19:09 82.9 °F 72.5 °F 29.85 in ENE 3.0 mph 5.0 mph 71 % 0.00 in
19:14 82.8 °F 72.9 °F 29.85 in ESE 1.0 mph 5.0 mph 72 % 0.00 in
19:19 82.4 °F 72.5 °F 29.85 in North 2.0 mph 4.0 mph 72 % 0.00 in
19:24 82.2 °F 72.7 °F 29.84 in Calm   3.0 mph 73 % 0.00 in
19:29 81.9 °F 72.7 °F 29.84 in East 1.0 mph 3.0 mph 74 % 0.00 in
19:34 81.7 °F 73.0 °F 29.84 in Calm   3.0 mph 75 % 0.00 in
19:39 81.5 °F 72.9 °F 29.84 in East 2.0 mph 3.0 mph 75 % 0.00 in
19:44 81.3 °F 73.0 °F 29.84 in East 1.0 mph 3.0 mph 76 % 0.00 in
19:49 81.1 °F 72.9 °F 29.84 in ESE 1.0 mph 4.0 mph 76 % 0.00 in
19:51 81.1 °F 72.9 °F 29.84 in SE 1.0 mph 4.0 mph 76 % 0.00 in
19:56 81.1 °F 73.2 °F 29.84 in Calm   4.0 mph 77 % 0.00 in
20:01 81.0 °F 73.0 °F 29.84 in Calm   4.0 mph 77 % 0.00 in
20:06 80.8 °F 72.9 °F 29.84 in ENE 1.0 mph 3.0 mph 77 % 0.00 in
20:11 80.8 °F 73.2 °F 29.84 in Calm   3.0 mph 78 % 0.00 in
20:16 80.6 °F 73.0 °F 29.84 in Calm   3.0 mph 78 % 0.00 in
20:26 80.2 °F 73.0 °F 29.85 in Calm   3.0 mph 79 % 0.00 in
20:31 80.2 °F 73.6 °F 29.85 in Calm   2.0 mph 80 % 0.00 in
20:36 80.1 °F 73.4 °F 29.85 in Calm   2.0 mph 80 % 0.00 in
20:41 80.1 °F 73.8 °F 29.85 in Calm   2.0 mph 81 % 0.00 in
20:46 79.9 °F 73.6 °F 29.86 in Calm   3.0 mph 81 % 0.00 in
20:51 80.1 °F 73.8 °F 29.86 in Calm   3.0 mph 81 % 0.00 in
20:56 80.1 °F 73.8 °F 29.86 in Calm   3.0 mph 81 % 0.00 in
21:01 80.2 °F 73.9 °F 29.86 in Calm   4.0 mph 81 % 0.00 in
21:06 80.4 °F 74.1 °F 29.86 in East 1.0 mph 4.0 mph 81 % 0.00 in
21:11 80.4 °F 74.5 °F 29.86 in ESE 2.0 mph 5.0 mph 82 % 0.00 in
21:21 80.4 °F 74.5 °F 29.86 in ENE 2.0 mph 5.0 mph 82 % 0.00 in
21:26 80.4 °F 74.5 °F 29.86 in SE 1.0 mph 5.0 mph 82 % 0.00 in
21:31 80.4 °F 74.5 °F 29.86 in Calm   5.0 mph 82 % 0.00 in
21:36 80.4 °F 74.5 °F 29.86 in Calm   5.0 mph 82 % 0.00 in
21:41 80.4 °F 74.5 °F 29.87 in Calm   4.0 mph 82 % 0.00 in
21:46 80.2 °F 74.7 °F 29.87 in Calm   4.0 mph 83 % 0.00 in
21:51 80.1 °F 74.5 °F 29.86 in East 2.0 mph 3.0 mph 83 % 0.00 in
21:56 80.1 °F 74.5 °F 29.86 in Calm   5.0 mph 83 % 0.00 in
22:01 80.1 °F 74.5 °F 29.86 in East 1.0 mph 5.0 mph 83 % 0.00 in
22:06 79.9 °F 74.7 °F 29.86 in Calm   5.0 mph 84 % 0.00 in
22:12 79.7 °F 74.5 °F 29.86 in ESE 3.0 mph 4.0 mph 84 % 0.00 in
22:17 79.5 °F 74.7 °F 29.86 in SE 3.0 mph 4.0 mph 85 % 0.00 in
22:22 79.5 °F 74.7 °F 29.87 in Calm   4.0 mph 85 % 0.00 in
22:23 79.5 °F 74.7 °F 29.87 in East 1.0 mph 4.0 mph 85 % 0.00 in
22:26 79.5 °F 74.7 °F 29.87 in Calm   4.0 mph 85 % 0.00 in
22:31 79.3 °F 74.5 °F 29.87 in Calm   4.0 mph 85 % 0.00 in
22:36 79.3 °F 74.5 °F 29.87 in Calm   2.0 mph 85 % 0.00 in
22:41 79.2 °F 74.7 °F 29.87 in Calm   2.0 mph 86 % 0.00 in
22:46 78.8 °F 74.3 °F 29.87 in Calm   2.0 mph 86 % 0.00 in
22:51 78.4 °F 74.3 °F 29.87 in Calm   2.0 mph 87 % 0.00 in
22:56 78.4 °F 74.7 °F 29.87 in Calm   2.0 mph 88 % 0.00 in
23:01 78.3 °F 74.5 °F 29.87 in Calm   2.0 mph 88 % 0.00 in
23:06 78.1 °F 74.3 °F 29.87 in Calm   1.0 mph 88 % 0.00 in
23:11 77.7 °F 74.3 °F 29.87 in Calm   1.0 mph 89 % 0.00 in
23:16 77.4 °F 73.9 °F 29.86 in Calm   1.0 mph 89 % 0.00 in
23:17 77.4 °F 73.9 °F 29.86 in Calm   1.0 mph 89 % 0.00 in
23:22 77.0 °F 73.6 °F 29.87 in Calm   1.0 mph 89 % 0.00 in
23:27 76.6 °F 73.4 °F 29.87 in Calm     90 % 0.00 in
23:32 76.5 °F 73.6 °F 29.87 in Calm     91 % 0.00 in
23:37 76.3 °F 73.8 °F 29.87 in Calm     92 % 0.00 in
23:42 76.1 °F 73.6 °F 29.87 in Calm     92 % 0.00 in
23:47 75.9 °F 73.8 °F 29.87 in Calm     93 % 0.00 in
23:52 75.6 °F 73.0 °F 29.87 in Calm     92 % 0.00 in
23:53 75.6 °F 73.0 °F 29.87 in Calm     92 % 0.00 in
23:58 75.4 °F 73.2 °F 29.87 in Calm     93 % 0.00 in
Spring, Texas: Villages of Bridgestone
Compliments of Weather Underground - 3.25 mb

Script developed by  Jim McMurry - jmcmurry@mwt.net Adapted for the template by  Wim van der Kuil - Leuven-Template.eu

You find our weather info also at:

UK Metoffice

WeatherCloud

Weather Underground

Mid-South Weather Network

AWEKAS

Citizen Weather Observer Program (CWOP)

HAMweather, WeatherForYou, PWS Weather

Equipment we use:

Weather-station
Davis Vantage Vue

Weather-program
Meteohub

Weather-server
Debian 7.9 x86 (Guest)

Provider
DreamHost

Davis Vantage Vue

Meteohub

Debian 7.9 x86 (Guest)

DreamHost